Time;durP1;ratioP1;P1;durP2;ratioP2;P2;SDS_P1;SDS_P2;PMS_P1;PMS_P2;Temp;Humidity;BMP_temperature;BMP_pressure;BME280_temperature;BME280_humidity;BME280_pressure;Samples;Min_cycle;Max_cycle;Signal;HPM_P1;HPM_P2
2023/04/26 00:01:05;;;;;;;5.97;5.47;;;;;;;;;;10278424;28;20068;-69
2023/04/26 00:06:07;;;;;;;5.38;4.90;;;;;;;;;;10279381;28;20077;-70
2023/04/26 00:11:05;;;;;;;9.70;5.35;;;;;;;;;;10278278;28;20075;-70
2023/04/26 00:16:05;;;;;;;7.43;4.85;;;;;;;;;;10279824;28;20083;-69
2023/04/26 00:21:04;;;;;;;5.65;5.15;;;;;;;;;;10298104;28;20049;-68
2023/04/26 00:26:02;;;;;;;6.60;5.50;;;;;;;;;;10292902;28;20076;-69
2023/04/26 00:31:06;;;;;;;6.15;5.50;;;;;;;;;;10278528;28;20079;-68
2023/04/26 00:36:10;;;;;;;6.32;5.72;;;;;;;;;;10278111;28;20060;-69
2023/04/26 00:41:08;;;;;;;6.43;5.82;;;;;;;;;;10278331;28;20530;-69
2023/04/26 00:46:08;;;;;;;5.97;5.47;;;;;;;;;;10269740;28;20471;-68
2023/04/26 00:51:07;;;;;;;6.60;6.00;;;;;;;;;;10276276;28;20075;-69
2023/04/26 00:56:09;;;;;;;6.93;5.93;;;;;;;;;;10277144;28;20064;-70
2023/04/26 01:01:08;;;;;;;7.03;6.32;;;;;;;;;;10268696;28;20088;-69
2023/04/26 01:06:07;;;;;;;6.25;5.50;;;;;;;;;;10275474;28;20064;-69
2023/04/26 01:11:08;;;;;;;6.75;6.15;;;;;;;;;;10277804;28;20080;-69
2023/04/26 01:16:07;;;;;;;7.78;7.05;;;;;;;;;;10274576;28;20089;-69
2023/04/26 01:21:05;;;;;;;8.45;7.22;;;;;;;;;;10275627;28;20075;-69
2023/04/26 01:26:05;;;;;;;7.82;7.13;;;;;;;;;;10276150;28;20068;-69
2023/04/26 01:31:03;;;;;;;8.70;7.80;;;;;;;;;;10275921;28;20065;-69
2023/04/26 01:36:01;;;;;;;8.10;6.97;;;;;;;;;;10275637;28;20482;-70
2023/04/26 01:41:00;;;;;;;7.82;7.13;;;;;;;;;;10276624;28;20538;-69
2023/04/26 01:45:59;;;;;;;7.90;6.60;;;;;;;;;;10281884;28;20076;-69
2023/04/26 01:51:00;;;;;;;8.15;7.35;;;;;;;;;;10274652;28;20080;-70
2023/04/26 01:56:00;;;;;;;7.35;6.75;;;;;;;;;;10273510;28;20091;-70
2023/04/26 02:01:06;;;;;;;7.93;6.20;;;;;;;;;;10260638;28;20083;-69
2023/04/26 02:06:04;;;;;;;7.82;6.90;;;;;;;;;;10273826;28;20068;-69
2023/04/26 02:11:03;;;;;;;6.60;5.97;;;;;;;;;;10272953;28;20559;-69
2023/04/26 02:16:01;;;;;;;7.18;6.53;;;;;;;;;;10273855;28;20076;-70
2023/04/26 02:21:00;;;;;;;8.50;6.05;;;;;;;;;;10270254;28;20077;-70
2023/04/26 02:26:02;;;;;;;6.68;5.93;;;;;;;;;;10260389;28;20092;-70
2023/04/26 02:31:01;;;;;;;6.65;6.05;;;;;;;;;;10272909;28;20090;-70
2023/04/26 02:36:04;;;;;;;7.47;6.75;;;;;;;;;;10286962;28;20077;-70
2023/04/26 02:41:03;;;;;;;7.10;6.40;;;;;;;;;;10264942;28;20085;-70
2023/04/26 02:46:02;;;;;;;6.78;6.18;;;;;;;;;;10271836;28;20809;-69
2023/04/26 02:51:01;;;;;;;5.85;5.35;;;;;;;;;;10273178;28;20072;-70
2023/04/26 02:56:01;;;;;;;7.35;6.57;;;;;;;;;;10271284;28;20088;-70
2023/04/26 03:00:59;;;;;;;6.93;6.32;;;;;;;;;;10271518;28;20084;-70
2023/04/26 03:05:59;;;;;;;7.20;6.47;;;;;;;;;;10260633;28;20093;-70
2023/04/26 03:10:57;;;;;;;7.47;6.35;;;;;;;;;;10269410;28;20507;-70
2023/04/26 03:15:57;;;;;;;41.40;32.95;;;;;;;;;;10265151;28;20076;-70
2023/04/26 03:20:55;;;;;;;8.85;8.05;;;;;;;;;;10272571;28;20064;-70
2023/04/26 03:25:53;;;;;;;8.95;7.80;;;;;;;;;;10270708;28;20586;-70
2023/04/26 03:30:52;;;;;;;7.40;6.30;;;;;;;;;;10272054;28;20470;-70
2023/04/26 03:35:52;;;;;;;6.95;6.13;;;;;;;;;;10276857;28;20091;-69
2023/04/26 03:40:50;;;;;;;8.27;7.43;;;;;;;;;;10279837;28;20091;-69
2023/04/26 03:45:49;;;;;;;8.90;7.85;;;;;;;;;;10281321;28;20068;-69
2023/04/26 03:50:47;;;;;;;9.10;7.30;;;;;;;;;;10277875;28;20045;-68
2023/04/26 03:55:47;;;;;;;8.93;8.10;;;;;;;;;;10269203;28;20071;-68
2023/04/26 04:00:45;;;;;;;8.20;7.22;;;;;;;;;;10275333;28;20080;-69
2023/04/26 04:05:44;;;;;;;8.60;6.70;;;;;;;;;;10266180;28;20076;-69
2023/04/26 04:10:44;;;;;;;9.50;8.43;;;;;;;;;;10265889;28;20080;-69
2023/04/26 04:15:44;;;;;;;11.35;7.57;;;;;;;;;;10270133;28;20068;-69
2023/04/26 04:20:42;;;;;;;6.80;6.10;;;;;;;;;;10275161;28;20064;-69
2023/04/26 04:25:41;;;;;;;6.97;6.35;;;;;;;;;;10274724;28;20052;-70
2023/04/26 04:30:42;;;;;;;6.28;5.68;;;;;;;;;;10275797;28;20522;-69
2023/04/26 04:35:43;;;;;;;7.25;6.55;;;;;;;;;;10274780;28;20076;-70
2023/04/26 04:40:41;;;;;;;14.60;5.88;;;;;;;;;;10269535;28;20099;-69
2023/04/26 04:45:40;;;;;;;7.25;5.68;;;;;;;;;;10274366;28;20499;-69
2023/04/26 04:50:39;;;;;;;8.57;5.90;;;;;;;;;;10265079;28;20570;-69
2023/04/26 04:55:40;;;;;;;6.38;5.60;;;;;;;;;;10281494;28;20255;-69
2023/04/26 05:00:39;;;;;;;8.23;5.53;;;;;;;;;;10283678;28;20517;-69
2023/04/26 05:05:49;;;;;;;7.38;5.50;;;;;;;;;;10267255;28;20077;-68
2023/04/26 05:10:49;;;;;;;7.43;5.85;;;;;;;;;;10269285;28;20065;-70
2023/04/26 05:15:47;;;;;;;6.15;5.40;;;;;;;;;;10263790;28;20089;-70
2023/04/26 05:20:46;;;;;;;7.03;6.32;;;;;;;;;;10267624;28;20072;-70
2023/04/26 05:25:45;;;;;;;7.93;5.85;;;;;;;;;;10259160;28;20072;-70
2023/04/26 05:31:05;;;;;;;7.50;6.80;;;;;;;;;;10265422;28;20083;-70
2023/04/26 05:36:20;;;;;;;8.13;7.10;;;;;;;;;;10267358;28;20077;-70
2023/04/26 05:41:18;;;;;;;7.70;6.50;;;;;;;;;;10264732;28;20504;-70
2023/04/26 05:46:17;;;;;;;5.78;5.18;;;;;;;;;;10266417;28;20573;-70
2023/04/26 14:27:42;;;;;;;2.45;2.10;;;;;;;;;;12649876;22;1276261;-63
2023/04/26 14:32:41;;;;;;;3.33;1.95;;;;;;;;;;12738643;22;20024;-63
2023/04/26 14:37:39;;;;;;;25.15;17.17;;;;;;;;;;12692706;22;20433;-62
2023/04/26 14:42:43;;;;;;;6.97;3.50;;;;;;;;;;12698416;22;20019;-59
2023/04/26 14:47:42;;;;;;;8.37;3.97;;;;;;;;;;12695638;22;20349;-60
2023/04/26 14:52:41;;;;;;;2.42;1.90;;;;;;;;;;12693139;22;20019;-59
2023/04/26 14:57:40;;;;;;;1.90;1.30;;;;;;;;;;12692346;22;20020;-60
2023/04/26 15:02:39;;;;;;;8.35;6.47;;;;;;;;;;12670068;22;20023;-60
2023/04/26 15:07:39;;;;;;;5.10;3.78;;;;;;;;;;12695717;22;20438;-61
2023/04/26 15:12:37;;;;;;;6.32;3.28;;;;;;;;;;12695581;22;20584;-60
2023/04/26 15:17:35;;;;;;;7.82;3.85;;;;;;;;;;12694991;22;20027;-61
2023/04/26 15:22:34;;;;;;;5.18;3.40;;;;;;;;;;12697763;22;20373;-60
2023/04/26 15:27:37;;;;;;;5.50;5.00;;;;;;;;;;12698838;22;20020;-61
2023/04/26 15:32:36;;;;;;;6.15;4.88;;;;;;;;;;12697888;22;20027;-61
2023/04/26 15:37:36;;;;;;;12.63;9.10;;;;;;;;;;12671764;22;20020;-58
2023/04/26 15:42:34;;;;;;;8.20;6.25;;;;;;;;;;12698647;22;20031;-60
2023/04/26 15:47:35;;;;;;;11.77;10.18;;;;;;;;;;12698642;22;20349;-60
2023/04/26 15:52:34;;;;;;;10.52;8.88;;;;;;;;;;12713401;22;20357;-62
2023/04/26 15:57:36;;;;;;;16.50;14.30;;;;;;;;;;12698478;22;20024;-61
2023/04/26 16:02:36;;;;;;;5.47;4.40;;;;;;;;;;12698786;22;20024;-61
2023/04/26 16:07:37;;;;;;;8.75;6.50;;;;;;;;;;12697593;22;20370;-61
2023/04/26 16:12:38;;;;;;;8.45;5.88;;;;;;;;;;12698556;22;20016;-60
2023/04/26 16:17:38;;;;;;;7.75;4.10;;;;;;;;;;12697914;22;20540;-60
2023/04/26 16:22:36;;;;;;;7.50;6.70;;;;;;;;;;12697382;22;20020;-60
2023/04/26 16:27:34;;;;;;;5.97;5.28;;;;;;;;;;12698639;22;20434;-62
2023/04/26 16:32:33;;;;;;;7.05;5.78;;;;;;;;;;12698215;22;20165;-62
2023/04/26 16:37:32;;;;;;;9.32;8.43;;;;;;;;;;12697936;22;20044;-61
2023/04/26 16:42:30;;;;;;;7.72;5.47;;;;;;;;;;12699194;22;20445;-62
2023/04/26 16:47:29;;;;;;;9.65;8.75;;;;;;;;;;12698141;22;20027;-62
2023/04/26 16:52:27;;;;;;;65.28;35.72;;;;;;;;;;12697145;22;20028;-60
2023/04/26 16:57:26;;;;;;;23.90;18.88;;;;;;;;;;12697861;22;20027;-62
2023/04/26 17:02:25;;;;;;;9.15;6.03;;;;;;;;;;12695985;22;20024;-61
2023/04/26 17:07:23;;;;;;;11.38;7.55;;;;;;;;;;12698182;22;20012;-61
2023/04/26 17:12:21;;;;;;;12.57;9.52;;;;;;;;;;12697090;22;20027;-62
2023/04/26 17:17:21;;;;;;;9.88;7.45;;;;;;;;;;12701049;22;20020;-61
2023/04/26 17:22:19;;;;;;;16.40;11.38;;;;;;;;;;12701773;22;20012;-61
2023/04/26 17:27:18;;;;;;;36.78;24.65;;;;;;;;;;12701121;22;20469;-60
2023/04/26 17:32:16;;;;;;;17.55;12.63;;;;;;;;;;12701954;22;20015;-60
2023/04/26 17:37:15;;;;;;;12.38;8.55;;;;;;;;;;12700829;22;20024;-61
2023/04/26 17:42:14;;;;;;;7.32;3.70;;;;;;;;;;12701324;22;20019;-62
2023/04/26 17:47:12;;;;;;;9.25;5.28;;;;;;;;;;12700942;22;20024;-62
2023/04/26 17:52:10;;;;;;;5.60;4.45;;;;;;;;;;12701103;22;20036;-61
2023/04/26 17:57:10;;;;;;;7.75;6.72;;;;;;;;;;12700795;22;20551;-60
2023/04/26 18:02:09;;;;;;;6.78;6.07;;;;;;;;;;12699410;22;20016;-60
2023/04/26 18:07:07;;;;;;;5.53;4.30;;;;;;;;;;12700322;22;20016;-60
2023/04/26 18:12:06;;;;;;;4.40;4.00;;;;;;;;;;12700770;22;20016;-61
2023/04/26 18:17:05;;;;;;;10.93;6.30;;;;;;;;;;12700478;22;20012;-60
2023/04/26 18:22:04;;;;;;;6.50;4.70;;;;;;;;;;12699521;22;20016;-60
2023/04/26 18:27:02;;;;;;;6.85;5.57;;;;;;;;;;12700101;22;20012;-60
2023/04/26 18:32:01;;;;;;;6.93;5.20;;;;;;;;;;12700351;22;20016;-60
2023/04/26 18:37:00;;;;;;;4.68;3.17;;;;;;;;;;12699984;22;20203;-59
2023/04/26 18:42:00;;;;;;;4.93;3.22;;;;;;;;;;12699952;22;20012;-60
2023/04/26 18:47:00;;;;;;;7.90;4.38;;;;;;;;;;12698805;22;20039;-60
2023/04/26 18:52:00;;;;;;;4.22;3.40;;;;;;;;;;12717743;22;20023;-63
2023/04/26 18:57:02;;;;;;;5.30;3.17;;;;;;;;;;12673494;22;20016;-64
2023/04/26 19:02:00;;;;;;;3.38;2.85;;;;;;;;;;12699995;22;20024;-64
2023/04/26 19:07:00;;;;;;;3.08;2.78;;;;;;;;;;12699951;22;20019;-63
2023/04/26 19:11:58;;;;;;;3.25;2.67;;;;;;;;;;12693657;22;20020;-61
2023/04/26 19:16:58;;;;;;;5.25;3.05;;;;;;;;;;12694772;22;20464;-65
2023/04/26 19:21:58;;;;;;;6.00;3.10;;;;;;;;;;12694983;22;20611;-65
2023/04/26 19:26:56;;;;;;;2.78;2.50;;;;;;;;;;12662591;22;20028;-65
2023/04/26 19:31:54;;;;;;;2.22;1.98;;;;;;;;;;12689319;22;20016;-64
2023/04/26 19:36:54;;;;;;;4.95;2.70;;;;;;;;;;12689349;22;20038;-65
2023/04/26 19:41:52;;;;;;;2.30;2.10;;;;;;;;;;12687952;22;20012;-64
2023/04/26 19:46:51;;;;;;;6.32;3.10;;;;;;;;;;12690128;22;20035;-64
2023/04/26 19:51:49;;;;;;;3.03;2.53;;;;;;;;;;12693432;22;20019;-64
2023/04/26 19:56:48;;;;;;;3.78;2.55;;;;;;;;;;12690811;22;20031;-64
2023/04/26 20:01:46;;;;;;;3.00;2.20;;;;;;;;;;12693554;22;20434;-65
2023/04/26 20:06:45;;;;;;;3.85;3.25;;;;;;;;;;12693331;22;20027;-65
2023/04/26 20:11:43;;;;;;;2.08;1.95;;;;;;;;;;12694168;22;20031;-64
2023/04/26 20:16:43;;;;;;;5.65;3.53;;;;;;;;;;12694446;22;20024;-64
2023/04/26 20:21:41;;;;;;;4.85;3.40;;;;;;;;;;12693244;22;20039;-64
2023/04/26 20:26:39;;;;;;;7.90;3.63;;;;;;;;;;12698448;22;20012;-64
2023/04/26 20:31:38;;;;;;;7.60;5.13;;;;;;;;;;12697994;22;20024;-64
2023/04/26 20:36:38;;;;;;;3.42;2.10;;;;;;;;;;12698651;22;20012;-64
2023/04/26 20:41:36;;;;;;;7.40;4.03;;;;;;;;;;12697934;22;20020;-64
2023/04/26 20:46:34;;;;;;;4.80;3.35;;;;;;;;;;12697672;22;20024;-64
2023/04/26 20:51:33;;;;;;;2.28;2.08;;;;;;;;;;12701901;22;20021;-64
2023/04/26 20:56:32;;;;;;;3.15;2.08;;;;;;;;;;12701163;22;20039;-65
2023/04/26 21:01:32;;;;;;;4.15;2.38;;;;;;;;;;12702151;22;20027;-64
2023/04/26 21:06:31;;;;;;;4.30;2.70;;;;;;;;;;12702248;22;20026;-65
2023/04/26 21:11:29;;;;;;;3.08;2.40;;;;;;;;;;12702128;22;20016;-64
2023/04/26 21:16:29;;;;;;;3.55;2.50;;;;;;;;;;12702165;22;20016;-65
2023/04/26 21:21:28;;;;;;;5.50;2.72;;;;;;;;;;12701015;22;20020;-64
2023/04/26 21:26:26;;;;;;;5.60;3.30;;;;;;;;;;12701698;22;20473;-64
2023/04/26 21:31:25;;;;;;;4.95;3.13;;;;;;;;;;12701716;22;20027;-63
2023/04/26 21:36:25;;;;;;;5.43;3.03;;;;;;;;;;12701255;22;20024;-64
2023/04/26 21:41:24;;;;;;;5.57;3.13;;;;;;;;;;12702608;22;20012;-64
2023/04/26 21:46:22;;;;;;;3.78;2.75;;;;;;;;;;12701426;22;20031;-64
2023/04/26 21:51:21;;;;;;;5.25;2.90;;;;;;;;;;12700385;22;20023;-63
2023/04/26 21:56:20;;;;;;;4.78;3.08;;;;;;;;;;12700117;22;20024;-64
2023/04/26 22:01:18;;;;;;;5.30;3.25;;;;;;;;;;12700506;22;20020;-65
2023/04/26 22:06:16;;;;;;;4.70;3.65;;;;;;;;;;12700583;22;20364;-65
2023/04/26 22:11:15;;;;;;;3.42;2.70;;;;;;;;;;12701254;22;20016;-65
2023/04/26 22:16:14;;;;;;;3.42;3.13;;;;;;;;;;12700191;22;20020;-64
2023/04/26 22:21:12;;;;;;;3.30;2.88;;;;;;;;;;12700858;22;20023;-64
2023/04/26 22:26:10;;;;;;;4.22;3.50;;;;;;;;;;12672864;22;20016;-65
2023/04/26 22:31:09;;;;;;;5.88;3.22;;;;;;;;;;12699588;22;20565;-65
2023/04/26 22:36:09;;;;;;;3.83;2.83;;;;;;;;;;12699631;22;20031;-65
2023/04/26 22:41:07;;;;;;;6.88;2.90;;;;;;;;;;12699213;22;20031;-65
2023/04/26 22:46:05;;;;;;;5.00;2.72;;;;;;;;;;12700561;23;20031;-65
2023/04/26 22:51:03;;;;;;;3.58;3.22;;;;;;;;;;12700098;23;20012;-65
2023/04/26 22:56:03;;;;;;;5.90;3.05;;;;;;;;;;12699957;23;20031;-65
2023/04/26 23:01:01;;;;;;;5.78;3.53;;;;;;;;;;12699895;23;20016;-64
2023/04/26 23:05:59;;;;;;;3.35;3.00;;;;;;;;;;12701063;22;20020;-65
2023/04/26 23:10:57;;;;;;;3.33;2.92;;;;;;;;;;12700568;22;20023;-64
2023/04/26 23:15:57;;;;;;;8.85;3.33;;;;;;;;;;12698460;22;20020;-65
2023/04/26 23:20:55;;;;;;;5.93;4.70;;;;;;;;;;12699254;22;20012;-64
2023/04/26 23:25:53;;;;;;;4.35;4.00;;;;;;;;;;12699317;22;20016;-64
2023/04/26 23:30:52;;;;;;;6.78;4.22;;;;;;;;;;12697764;22;20024;-64
2023/04/26 23:35:54;;;;;;;5.75;4.72;;;;;;;;;;12699163;22;20020;-64
2023/04/26 23:40:52;;;;;;;5.05;4.13;;;;;;;;;;12700944;22;20501;-65
2023/04/26 23:45:50;;;;;;;5.38;4.43;;;;;;;;;;12699762;22;20352;-64
2023/04/26 23:50:48;;;;;;;7.38;4.40;;;;;;;;;;12699046;22;20027;-65
2023/04/26 23:55:48;;;;;;;5.20;3.70;;;;;;;;;;12698938;22;20458;-64
